sensor_id;sensor_type;location;lat;lon;timestamp;P1;durP1;ratioP1;P2;durP2;ratioP2
39728;SDS011;25402;42.004;23.088;2022-12-18T00:00:46;20.83;;;11.43;;
39728;SDS011;25402;42.004;23.088;2022-12-18T00:03:13;24.30;;;11.95;;
39728;SDS011;25402;42.004;23.088;2022-12-18T00:05:45;21.60;;;11.43;;
39728;SDS011;25402;42.004;23.088;2022-12-18T00:08:14;25.08;;;10.35;;
39728;SDS011;25402;42.004;23.088;2022-12-18T00:10:42;18.48;;;9.82;;
39728;SDS011;25402;42.004;23.088;2022-12-18T00:13:10;23.13;;;8.80;;
39728;SDS011;25402;42.004;23.088;2022-12-18T00:15:38;18.67;;;9.05;;
39728;SDS011;25402;42.004;23.088;2022-12-18T00:18:05;18.08;;;8.40;;
39728;SDS011;25402;42.004;23.088;2022-12-18T00:20:35;19.98;;;8.18;;
39728;SDS011;25402;42.004;23.088;2022-12-18T00:23:03;19.02;;;8.57;;
39728;SDS011;25402;42.004;23.088;2022-12-18T00:25:33;24.67;;;9.40;;
39728;SDS011;25402;42.004;23.088;2022-12-18T00:28:01;24.70;;;8.63;;
39728;SDS011;25402;42.004;23.088;2022-12-18T00:30:29;17.88;;;8.48;;
39728;SDS011;25402;42.004;23.088;2022-12-18T00:32:56;55.40;;;8.52;;
39728;SDS011;25402;42.004;23.088;2022-12-18T00:35:23;24.77;;;8.90;;
39728;SDS011;25402;42.004;23.088;2022-12-18T00:37:50;19.85;;;8.25;;
39728;SDS011;25402;42.004;23.088;2022-12-18T00:40:19;21.02;;;8.50;;
39728;SDS011;25402;42.004;23.088;2022-12-18T00:42:47;17.13;;;8.27;;
39728;SDS011;25402;42.004;23.088;2022-12-18T00:45:24;15.75;;;8.38;;
39728;SDS011;25402;42.004;23.088;2022-12-18T00:47:51;14.15;;;8.57;;
39728;SDS011;25402;42.004;23.088;2022-12-18T00:50:18;21.23;;;8.52;;
39728;SDS011;25402;42.004;23.088;2022-12-18T00:52:46;21.35;;;9.88;;
39728;SDS011;25402;42.004;23.088;2022-12-18T00:55:13;27.83;;;10.88;;
39728;SDS011;25402;42.004;23.088;2022-12-18T00:57:40;20.38;;;9.98;;
39728;SDS011;25402;42.004;23.088;2022-12-18T01:00:14;21.45;;;9.95;;
39728;SDS011;25402;42.004;23.088;2022-12-18T01:02:42;24.15;;;10.10;;
39728;SDS011;25402;42.004;23.088;2022-12-18T01:05:10;26.05;;;10.60;;
39728;SDS011;25402;42.004;23.088;2022-12-18T01:07:38;19.80;;;9.63;;
39728;SDS011;25402;42.004;23.088;2022-12-18T01:10:06;24.83;;;10.20;;
39728;SDS011;25402;42.004;23.088;2022-12-18T01:12:33;33.95;;;10.45;;
39728;SDS011;25402;42.004;23.088;2022-12-18T01:15:00;17.55;;;10.40;;
39728;SDS011;25402;42.004;23.088;2022-12-18T01:17:29;25.05;;;11.20;;
39728;SDS011;25402;42.004;23.088;2022-12-18T01:19:56;33.80;;;12.13;;
39728;SDS011;25402;42.004;23.088;2022-12-18T01:22:23;31.90;;;12.75;;
39728;SDS011;25402;42.004;23.088;2022-12-18T01:24:49;26.80;;;11.32;;
39728;SDS011;25402;42.004;23.088;2022-12-18T01:27:16;26.95;;;11.55;;
39728;SDS011;25402;42.004;23.088;2022-12-18T01:29:43;34.78;;;11.52;;
39728;SDS011;25402;42.004;23.088;2022-12-18T01:32:10;36.90;;;12.38;;
39728;SDS011;25402;42.004;23.088;2022-12-18T01:34:38;22.70;;;11.90;;
39728;SDS011;25402;42.004;23.088;2022-12-18T01:37:05;34.88;;;11.40;;
39728;SDS011;25402;42.004;23.088;2022-12-18T01:39:32;26.70;;;11.07;;
39728;SDS011;25402;42.004;23.088;2022-12-18T01:42:00;25.02;;;10.63;;
39728;SDS011;25402;42.004;23.088;2022-12-18T01:47:23;21.30;;;8.68;;
39728;SDS011;25402;42.004;23.088;2022-12-18T01:49:55;28.90;;;9.45;;
39728;SDS011;25402;42.004;23.088;2022-12-18T01:52:23;24.90;;;11.82;;
39728;SDS011;25402;42.004;23.088;2022-12-18T01:54:52;41.90;;;11.95;;
39728;SDS011;25402;42.004;23.088;2022-12-18T01:57:20;34.13;;;14.07;;
39728;SDS011;25402;42.004;23.088;2022-12-18T01:59:49;31.05;;;11.23;;
39728;SDS011;25402;42.004;23.088;2022-12-18T02:02:19;32.40;;;11.38;;
39728;SDS011;25402;42.004;23.088;2022-12-18T02:04:47;20.35;;;7.95;;
39728;SDS011;25402;42.004;23.088;2022-12-18T02:07:17;23.08;;;8.85;;
39728;SDS011;25402;42.004;23.088;2022-12-18T02:09:52;21.77;;;7.75;;
39728;SDS011;25402;42.004;23.088;2022-12-18T02:12:24;23.50;;;7.78;;
39728;SDS011;25402;42.004;23.088;2022-12-18T02:14:58;23.13;;;6.80;;
39728;SDS011;25402;42.004;23.088;2022-12-18T02:17:30;28.83;;;7.63;;
39728;SDS011;25402;42.004;23.088;2022-12-18T02:20:05;19.92;;;7.43;;
39728;SDS011;25402;42.004;23.088;2022-12-18T02:22:43;15.63;;;6.88;;
39728;SDS011;25402;42.004;23.088;2022-12-18T02:25:24;24.50;;;7.28;;
39728;SDS011;25402;42.004;23.088;2022-12-18T02:28:09;17.48;;;7.13;;
39728;SDS011;25402;42.004;23.088;2022-12-18T02:30:39;26.48;;;9.27;;
39728;SDS011;25402;42.004;23.088;2022-12-18T02:33:08;17.08;;;6.90;;
39728;SDS011;25402;42.004;23.088;2022-12-18T02:35:38;12.90;;;6.57;;
39728;SDS011;25402;42.004;23.088;2022-12-18T02:38:07;10.77;;;6.28;;
39728;SDS011;25402;42.004;23.088;2022-12-18T02:40:34;13.07;;;5.90;;
39728;SDS011;25402;42.004;23.088;2022-12-18T02:43:08;8.82;;;5.47;;
39728;SDS011;25402;42.004;23.088;2022-12-18T02:45:45;11.23;;;5.47;;
39728;SDS011;25402;42.004;23.088;2022-12-18T02:48:13;12.27;;;5.45;;
39728;SDS011;25402;42.004;23.088;2022-12-18T02:50:41;11.95;;;5.93;;
39728;SDS011;25402;42.004;23.088;2022-12-18T02:53:16;10.02;;;5.20;;
39728;SDS011;25402;42.004;23.088;2022-12-18T02:55:51;8.93;;;5.55;;
39728;SDS011;25402;42.004;23.088;2022-12-18T02:58:29;15.05;;;5.72;;
39728;SDS011;25402;42.004;23.088;2022-12-18T03:01:05;11.18;;;5.05;;
39728;SDS011;25402;42.004;23.088;2022-12-18T03:03:40;14.52;;;5.68;;
39728;SDS011;25402;42.004;23.088;2022-12-18T03:06:14;13.43;;;5.80;;
39728;SDS011;25402;42.004;23.088;2022-12-18T03:08:51;10.88;;;6.10;;
39728;SDS011;25402;42.004;23.088;2022-12-18T03:11:24;13.75;;;5.53;;
39728;SDS011;25402;42.004;23.088;2022-12-18T03:14:15;11.35;;;5.75;;
39728;SDS011;25402;42.004;23.088;2022-12-18T03:16:43;9.68;;;6.35;;
39728;SDS011;25402;42.004;23.088;2022-12-18T03:19:14;9.25;;;5.50;;
39728;SDS011;25402;42.004;23.088;2022-12-18T03:21:43;11.98;;;5.50;;
39728;SDS011;25402;42.004;23.088;2022-12-18T03:24:13;8.68;;;5.15;;
39728;SDS011;25402;42.004;23.088;2022-12-18T03:26:43;7.32;;;5.47;;
39728;SDS011;25402;42.004;23.088;2022-12-18T03:29:16;9.52;;;5.30;;
39728;SDS011;25402;42.004;23.088;2022-12-18T03:31:47;9.75;;;5.80;;
39728;SDS011;25402;42.004;23.088;2022-12-18T03:34:19;11.68;;;5.40;;
39728;SDS011;25402;42.004;23.088;2022-12-18T03:36:50;6.88;;;4.72;;
39728;SDS011;25402;42.004;23.088;2022-12-18T03:39:17;8.68;;;4.68;;
39728;SDS011;25402;42.004;23.088;2022-12-18T03:41:44;5.80;;;3.83;;
39728;SDS011;25402;42.004;23.088;2022-12-18T03:44:19;9.20;;;4.38;;
39728;SDS011;25402;42.004;23.088;2022-12-18T03:46:54;6.93;;;4.03;;
39728;SDS011;25402;42.004;23.088;2022-12-18T03:49:25;8.00;;;4.28;;
39728;SDS011;25402;42.004;23.088;2022-12-18T03:51:59;6.53;;;4.47;;
39728;SDS011;25402;42.004;23.088;2022-12-18T03:54:30;7.10;;;4.55;;
39728;SDS011;25402;42.004;23.088;2022-12-18T03:57:01;10.68;;;4.60;;
39728;SDS011;25402;42.004;23.088;2022-12-18T03:59:34;8.60;;;4.70;;
39728;SDS011;25402;42.004;23.088;2022-12-18T04:02:02;7.65;;;4.30;;
39728;SDS011;25402;42.004;23.088;2022-12-18T04:04:32;8.68;;;4.78;;
39728;SDS011;25402;42.004;23.088;2022-12-18T04:07:01;8.85;;;4.90;;
39728;SDS011;25402;42.004;23.088;2022-12-18T04:09:28;7.40;;;4.65;;
39728;SDS011;25402;42.004;23.088;2022-12-18T04:11:58;14.80;;;4.68;;
39728;SDS011;25402;42.004;23.088;2022-12-18T04:14:25;7.40;;;4.32;;
39728;SDS011;25402;42.004;23.088;2022-12-18T04:16:53;10.80;;;4.45;;
39728;SDS011;25402;42.004;23.088;2022-12-18T04:19:20;11.02;;;5.03;;
39728;SDS011;25402;42.004;23.088;2022-12-18T04:21:47;8.35;;;4.55;;
39728;SDS011;25402;42.004;23.088;2022-12-18T04:24:13;9.32;;;4.80;;
39728;SDS011;25402;42.004;23.088;2022-12-18T04:26:40;7.25;;;4.55;;
39728;SDS011;25402;42.004;23.088;2022-12-18T04:29:07;9.02;;;4.80;;
39728;SDS011;25402;42.004;23.088;2022-12-18T04:31:34;6.07;;;4.18;;
39728;SDS011;25402;42.004;23.088;2022-12-18T04:34:02;8.27;;;4.30;;
39728;SDS011;25402;42.004;23.088;2022-12-18T04:36:30;10.43;;;4.50;;
39728;SDS011;25402;42.004;23.088;2022-12-18T04:38:57;8.13;;;4.35;;
39728;SDS011;25402;42.004;23.088;2022-12-18T04:41:23;7.95;;;4.22;;
39728;SDS011;25402;42.004;23.088;2022-12-18T04:43:50;8.45;;;4.60;;
39728;SDS011;25402;42.004;23.088;2022-12-18T04:46:17;13.95;;;4.60;;
39728;SDS011;25402;42.004;23.088;2022-12-18T04:48:45;12.32;;;3.97;;
39728;SDS011;25402;42.004;23.088;2022-12-18T04:51:14;9.68;;;4.47;;
39728;SDS011;25402;42.004;23.088;2022-12-18T04:53:41;11.50;;;4.57;;
39728;SDS011;25402;42.004;23.088;2022-12-18T04:56:09;14.02;;;5.13;;
39728;SDS011;25402;42.004;23.088;2022-12-18T04:58:37;17.45;;;4.50;;
39728;SDS011;25402;42.004;23.088;2022-12-18T05:01:06;11.85;;;4.10;;
39728;SDS011;25402;42.004;23.088;2022-12-18T05:03:34;16.20;;;5.03;;
39728;SDS011;25402;42.004;23.088;2022-12-18T05:06:01;12.90;;;4.35;;
39728;SDS011;25402;42.004;23.088;2022-12-18T05:08:31;13.00;;;4.68;;
39728;SDS011;25402;42.004;23.088;2022-12-18T05:10:58;20.25;;;4.28;;
39728;SDS011;25402;42.004;23.088;2022-12-18T05:13:26;18.15;;;4.45;;
39728;SDS011;25402;42.004;23.088;2022-12-18T05:15:53;27.65;;;5.07;;
39728;SDS011;25402;42.004;23.088;2022-12-18T05:18:21;15.30;;;4.45;;
39728;SDS011;25402;42.004;23.088;2022-12-18T05:20:48;21.13;;;5.00;;
39728;SDS011;25402;42.004;23.088;2022-12-18T05:23:15;19.67;;;4.22;;
39728;SDS011;25402;42.004;23.088;2022-12-18T05:25:46;14.27;;;4.88;;
39728;SDS011;25402;42.004;23.088;2022-12-18T05:28:13;15.60;;;4.35;;
39728;SDS011;25402;42.004;23.088;2022-12-18T05:30:40;13.65;;;4.00;;
39728;SDS011;25402;42.004;23.088;2022-12-18T05:33:07;19.42;;;4.72;;
39728;SDS011;25402;42.004;23.088;2022-12-18T05:35:34;16.92;;;4.72;;
39728;SDS011;25402;42.004;23.088;2022-12-18T05:38:01;18.17;;;4.40;;
39728;SDS011;25402;42.004;23.088;2022-12-18T05:40:27;14.82;;;4.18;;
39728;SDS011;25402;42.004;23.088;2022-12-18T05:42:56;15.88;;;4.15;;
39728;SDS011;25402;42.004;23.088;2022-12-18T05:45:23;14.93;;;4.15;;
39728;SDS011;25402;42.004;23.088;2022-12-18T05:47:50;19.95;;;4.82;;
39728;SDS011;25402;42.004;23.088;2022-12-18T05:50:16;13.40;;;4.63;;
39728;SDS011;25402;42.004;23.088;2022-12-18T05:52:43;11.32;;;4.40;;
39728;SDS011;25402;42.004;23.088;2022-12-18T05:55:10;9.15;;;3.70;;
39728;SDS011;25402;42.004;23.088;2022-12-18T05:57:38;9.63;;;4.20;;
39728;SDS011;25402;42.004;23.088;2022-12-18T06:00:07;11.35;;;3.72;;
39728;SDS011;25402;42.004;23.088;2022-12-18T06:02:34;14.25;;;3.97;;
39728;SDS011;25402;42.004;23.088;2022-12-18T06:05:01;13.82;;;4.22;;
39728;SDS011;25402;42.004;23.088;2022-12-18T06:07:28;8.18;;;3.85;;
39728;SDS011;25402;42.004;23.088;2022-12-18T06:09:55;8.93;;;3.72;;
39728;SDS011;25402;42.004;23.088;2022-12-18T06:12:22;10.38;;;4.13;;
39728;SDS011;25402;42.004;23.088;2022-12-18T06:14:49;8.23;;;4.20;;
39728;SDS011;25402;42.004;23.088;2022-12-18T06:17:17;13.23;;;4.07;;
39728;SDS011;25402;42.004;23.088;2022-12-18T06:19:44;10.52;;;4.70;;
39728;SDS011;25402;42.004;23.088;2022-12-18T06:22:11;9.82;;;4.32;;
39728;SDS011;25402;42.004;23.088;2022-12-18T06:24:38;7.97;;;3.90;;
39728;SDS011;25402;42.004;23.088;2022-12-18T06:27:05;13.40;;;3.88;;
39728;SDS011;25402;42.004;23.088;2022-12-18T06:29:31;11.88;;;4.10;;
39728;SDS011;25402;42.004;23.088;2022-12-18T06:31:58;6.53;;;3.67;;
39728;SDS011;25402;42.004;23.088;2022-12-18T06:34:27;7.55;;;3.63;;
39728;SDS011;25402;42.004;23.088;2022-12-18T06:36:54;10.10;;;3.72;;
39728;SDS011;25402;42.004;23.088;2022-12-18T06:39:21;12.32;;;3.97;;
39728;SDS011;25402;42.004;23.088;2022-12-18T06:41:47;7.07;;;3.58;;
39728;SDS011;25402;42.004;23.088;2022-12-18T06:44:14;12.88;;;4.07;;
39728;SDS011;25402;42.004;23.088;2022-12-18T06:46:41;9.65;;;3.95;;
39728;SDS011;25402;42.004;23.088;2022-12-18T06:49:08;7.55;;;3.90;;
39728;SDS011;25402;42.004;23.088;2022-12-18T06:51:37;10.48;;;4.22;;
39728;SDS011;25402;42.004;23.088;2022-12-18T06:54:04;7.45;;;4.20;;
39728;SDS011;25402;42.004;23.088;2022-12-18T06:56:31;8.60;;;4.22;;
39728;SDS011;25402;42.004;23.088;2022-12-18T06:58:58;10.13;;;4.25;;
39728;SDS011;25402;42.004;23.088;2022-12-18T07:01:25;13.18;;;5.30;;
39728;SDS011;25402;42.004;23.088;2022-12-18T07:03:52;7.65;;;4.90;;
39728;SDS011;25402;42.004;23.088;2022-12-18T07:06:20;6.88;;;4.30;;
39728;SDS011;25402;42.004;23.088;2022-12-18T07:08:50;7.30;;;4.20;;
39728;SDS011;25402;42.004;23.088;2022-12-18T07:11:18;7.78;;;4.25;;
39728;SDS011;25402;42.004;23.088;2022-12-18T07:13:45;9.07;;;4.80;;
39728;SDS011;25402;42.004;23.088;2022-12-18T07:16:14;8.73;;;4.63;;
39728;SDS011;25402;42.004;23.088;2022-12-18T07:18:42;7.70;;;4.25;;
39728;SDS011;25402;42.004;23.088;2022-12-18T07:21:10;6.28;;;3.92;;
39728;SDS011;25402;42.004;23.088;2022-12-18T07:23:38;6.28;;;3.60;;
39728;SDS011;25402;42.004;23.088;2022-12-18T07:26:07;11.05;;;4.60;;
39728;SDS011;25402;42.004;23.088;2022-12-18T07:28:37;10.65;;;3.97;;
39728;SDS011;25402;42.004;23.088;2022-12-18T07:31:05;12.27;;;4.18;;
39728;SDS011;25402;42.004;23.088;2022-12-18T07:33:33;10.10;;;3.95;;
39728;SDS011;25402;42.004;23.088;2022-12-18T07:36:01;9.50;;;4.90;;
39728;SDS011;25402;42.004;23.088;2022-12-18T07:38:28;9.57;;;3.97;;
39728;SDS011;25402;42.004;23.088;2022-12-18T07:40:59;9.65;;;4.60;;
39728;SDS011;25402;42.004;23.088;2022-12-18T07:43:28;14.10;;;5.03;;
39728;SDS011;25402;42.004;23.088;2022-12-18T07:45:56;12.50;;;4.88;;
39728;SDS011;25402;42.004;23.088;2022-12-18T07:48:22;14.35;;;5.07;;
39728;SDS011;25402;42.004;23.088;2022-12-18T07:50:49;10.52;;;5.25;;
39728;SDS011;25402;42.004;23.088;2022-12-18T07:53:16;15.45;;;5.63;;
39728;SDS011;25402;42.004;23.088;2022-12-18T07:55:43;13.77;;;5.10;;
39728;SDS011;25402;42.004;23.088;2022-12-18T07:58:10;16.52;;;5.50;;
39728;SDS011;25402;42.004;23.088;2022-12-18T08:00:39;12.13;;;5.45;;
39728;SDS011;25402;42.004;23.088;2022-12-18T08:03:06;14.43;;;5.20;;
39728;SDS011;25402;42.004;23.088;2022-12-18T08:05:33;16.10;;;5.30;;
39728;SDS011;25402;42.004;23.088;2022-12-18T08:08:00;18.08;;;5.70;;
39728;SDS011;25402;42.004;23.088;2022-12-18T08:10:26;13.95;;;5.43;;
39728;SDS011;25402;42.004;23.088;2022-12-18T08:12:53;17.15;;;5.45;;
39728;SDS011;25402;42.004;23.088;2022-12-18T08:15:20;15.50;;;5.90;;
39728;SDS011;25402;42.004;23.088;2022-12-18T08:17:49;10.43;;;5.20;;
39728;SDS011;25402;42.004;23.088;2022-12-18T08:20:15;13.05;;;5.50;;
39728;SDS011;25402;42.004;23.088;2022-12-18T08:22:43;14.05;;;5.35;;
39728;SDS011;25402;42.004;23.088;2022-12-18T08:25:10;11.00;;;5.65;;
39728;SDS011;25402;42.004;23.088;2022-12-18T08:27:37;11.98;;;5.65;;
39728;SDS011;25402;42.004;23.088;2022-12-18T08:30:05;9.32;;;5.22;;
39728;SDS011;25402;42.004;23.088;2022-12-18T08:32:33;10.25;;;6.05;;
39728;SDS011;25402;42.004;23.088;2022-12-18T08:35:01;12.93;;;6.00;;
39728;SDS011;25402;42.004;23.088;2022-12-18T08:37:28;10.52;;;6.03;;
39728;SDS011;25402;42.004;23.088;2022-12-18T08:39:55;11.80;;;6.13;;
39728;SDS011;25402;42.004;23.088;2022-12-18T08:42:21;11.65;;;6.03;;
39728;SDS011;25402;42.004;23.088;2022-12-18T08:45:06;14.18;;;6.43;;
39728;SDS011;25402;42.004;23.088;2022-12-18T08:47:34;12.80;;;6.05;;
39728;SDS011;25402;42.004;23.088;2022-12-18T08:50:02;15.95;;;6.35;;
39728;SDS011;25402;42.004;23.088;2022-12-18T08:52:31;17.75;;;5.97;;
39728;SDS011;25402;42.004;23.088;2022-12-18T08:54:58;10.10;;;5.88;;
39728;SDS011;25402;42.004;23.088;2022-12-18T08:57:24;14.07;;;6.60;;
39728;SDS011;25402;42.004;23.088;2022-12-18T08:59:51;11.50;;;6.15;;
39728;SDS011;25402;42.004;23.088;2022-12-18T09:02:18;12.05;;;6.05;;
39728;SDS011;25402;42.004;23.088;2022-12-18T09:04:46;12.40;;;6.82;;
39728;SDS011;25402;42.004;23.088;2022-12-18T09:07:14;10.07;;;6.57;;
39728;SDS011;25402;42.004;23.088;2022-12-18T09:09:41;10.95;;;6.28;;
39728;SDS011;25402;42.004;23.088;2022-12-18T09:12:10;10.88;;;6.55;;
39728;SDS011;25402;42.004;23.088;2022-12-18T09:14:37;15.05;;;6.68;;
39728;SDS011;25402;42.004;23.088;2022-12-18T09:17:04;13.48;;;6.85;;
39728;SDS011;25402;42.004;23.088;2022-12-18T09:19:31;14.27;;;6.63;;
39728;SDS011;25402;42.004;23.088;2022-12-18T09:21:58;15.45;;;6.97;;
39728;SDS011;25402;42.004;23.088;2022-12-18T09:24:26;18.77;;;6.88;;
39728;SDS011;25402;42.004;23.088;2022-12-18T09:26:53;16.67;;;6.97;;
39728;SDS011;25402;42.004;23.088;2022-12-18T09:29:21;11.70;;;6.60;;
39728;SDS011;25402;42.004;23.088;2022-12-18T09:31:47;16.88;;;7.60;;
39728;SDS011;25402;42.004;23.088;2022-12-18T09:34:15;11.98;;;6.38;;
39728;SDS011;25402;42.004;23.088;2022-12-18T09:36:42;11.80;;;6.60;;
39728;SDS011;25402;42.004;23.088;2022-12-18T09:39:09;11.52;;;6.75;;
39728;SDS011;25402;42.004;23.088;2022-12-18T09:41:42;12.32;;;6.70;;
39728;SDS011;25402;42.004;23.088;2022-12-18T09:44:20;11.73;;;6.60;;
39728;SDS011;25402;42.004;23.088;2022-12-18T09:46:52;11.35;;;6.40;;
39728;SDS011;25402;42.004;23.088;2022-12-18T09:49:24;13.10;;;7.00;;
39728;SDS011;25402;42.004;23.088;2022-12-18T09:51:55;13.75;;;7.05;;
39728;SDS011;25402;42.004;23.088;2022-12-18T09:54:24;13.90;;;7.75;;
39728;SDS011;25402;42.004;23.088;2022-12-18T09:56:58;12.88;;;6.88;;
39728;SDS011;25402;42.004;23.088;2022-12-18T09:59:26;15.48;;;7.70;;
39728;SDS011;25402;42.004;23.088;2022-12-18T10:01:58;13.13;;;7.13;;
39728;SDS011;25402;42.004;23.088;2022-12-18T10:04:25;12.18;;;7.13;;
39728;SDS011;25402;42.004;23.088;2022-12-18T10:06:58;11.80;;;6.65;;
39728;SDS011;25402;42.004;23.088;2022-12-18T10:09:30;13.57;;;7.18;;
39728;SDS011;25402;42.004;23.088;2022-12-18T10:12:07;14.23;;;7.35;;
39728;SDS011;25402;42.004;23.088;2022-12-18T10:14:41;12.77;;;7.30;;
39728;SDS011;25402;42.004;23.088;2022-12-18T10:17:18;11.23;;;6.82;;
39728;SDS011;25402;42.004;23.088;2022-12-18T10:19:53;12.23;;;7.18;;
39728;SDS011;25402;42.004;23.088;2022-12-18T10:22:30;13.57;;;6.95;;
39728;SDS011;25402;42.004;23.088;2022-12-18T10:25:14;12.02;;;6.10;;
39728;SDS011;25402;42.004;23.088;2022-12-18T10:27:47;13.02;;;7.40;;
39728;SDS011;25402;42.004;23.088;2022-12-18T10:30:19;12.35;;;7.15;;
39728;SDS011;25402;42.004;23.088;2022-12-18T10:32:48;13.63;;;6.82;;
39728;SDS011;25402;42.004;23.088;2022-12-18T10:35:16;15.68;;;7.03;;
39728;SDS011;25402;42.004;23.088;2022-12-18T10:38:05;12.07;;;7.10;;
39728;SDS011;25402;42.004;23.088;2022-12-18T10:40:50;14.25;;;7.38;;
39728;SDS011;25402;42.004;23.088;2022-12-18T10:43:21;11.90;;;6.72;;
39728;SDS011;25402;42.004;23.088;2022-12-18T10:46:00;17.27;;;7.63;;
39728;SDS011;25402;42.004;23.088;2022-12-18T10:48:30;11.05;;;7.10;;
39728;SDS011;25402;42.004;23.088;2022-12-18T10:50:59;13.27;;;7.05;;
39728;SDS011;25402;42.004;23.088;2022-12-18T10:53:27;13.52;;;7.60;;
39728;SDS011;25402;42.004;23.088;2022-12-18T10:55:56;13.15;;;7.90;;
39728;SDS011;25402;42.004;23.088;2022-12-18T10:58:30;13.00;;;7.30;;
39728;SDS011;25402;42.004;23.088;2022-12-18T11:01:02;14.68;;;7.95;;
39728;SDS011;25402;42.004;23.088;2022-12-18T11:03:32;16.80;;;8.73;;
39728;SDS011;25402;42.004;23.088;2022-12-18T11:06:03;17.10;;;8.38;;
39728;SDS011;25402;42.004;23.088;2022-12-18T11:08:34;17.30;;;8.40;;
39728;SDS011;25402;42.004;23.088;2022-12-18T11:11:01;16.10;;;8.43;;
39728;SDS011;25402;42.004;23.088;2022-12-18T11:13:31;15.25;;;7.78;;
39728;SDS011;25402;42.004;23.088;2022-12-18T11:15:58;14.18;;;8.02;;
39728;SDS011;25402;42.004;23.088;2022-12-18T11:18:27;14.02;;;7.93;;
39728;SDS011;25402;42.004;23.088;2022-12-18T11:20:56;14.80;;;7.88;;
39728;SDS011;25402;42.004;23.088;2022-12-18T11:23:25;14.10;;;8.18;;
39728;SDS011;25402;42.004;23.088;2022-12-18T11:25:54;15.10;;;8.35;;
39728;SDS011;25402;42.004;23.088;2022-12-18T11:28:27;18.83;;;8.60;;
39728;SDS011;25402;42.004;23.088;2022-12-18T11:31:16;14.48;;;8.20;;
39728;SDS011;25402;42.004;23.088;2022-12-18T11:33:59;14.20;;;7.88;;
39728;SDS011;25402;42.004;23.088;2022-12-18T11:36:29;13.20;;;7.93;;
39728;SDS011;25402;42.004;23.088;2022-12-18T11:39:01;17.73;;;9.40;;
39728;SDS011;25402;42.004;23.088;2022-12-18T11:41:37;16.38;;;8.43;;
39728;SDS011;25402;42.004;23.088;2022-12-18T11:44:29;23.23;;;8.15;;
39728;SDS011;25402;42.004;23.088;2022-12-18T11:47:05;14.38;;;8.00;;
39728;SDS011;25402;42.004;23.088;2022-12-18T11:49:48;13.90;;;7.75;;
39728;SDS011;25402;42.004;23.088;2022-12-18T11:52:17;14.63;;;8.23;;
39728;SDS011;25402;42.004;23.088;2022-12-18T11:54:46;14.57;;;8.52;;
39728;SDS011;25402;42.004;23.088;2022-12-18T11:57:14;18.13;;;8.60;;
39728;SDS011;25402;42.004;23.088;2022-12-18T11:59:53;15.60;;;8.40;;
39728;SDS011;25402;42.004;23.088;2022-12-18T12:02:41;17.92;;;8.93;;
39728;SDS011;25402;42.004;23.088;2022-12-18T12:05:20;19.60;;;9.95;;
39728;SDS011;25402;42.004;23.088;2022-12-18T12:08:06;18.27;;;9.63;;
39728;SDS011;25402;42.004;23.088;2022-12-18T12:10:43;16.65;;;8.57;;
39728;SDS011;25402;42.004;23.088;2022-12-18T12:13:21;19.05;;;9.88;;
39728;SDS011;25402;42.004;23.088;2022-12-18T12:16:03;24.30;;;9.15;;
39728;SDS011;25402;42.004;23.088;2022-12-18T12:21:36;16.73;;;9.23;;
39728;SDS011;25402;42.004;23.088;2022-12-18T12:24:11;15.25;;;8.65;;
39728;SDS011;25402;42.004;23.088;2022-12-18T12:26:49;17.50;;;9.10;;
39728;SDS011;25402;42.004;23.088;2022-12-18T12:29:30;15.23;;;8.50;;
39728;SDS011;25402;42.004;23.088;2022-12-18T12:32:12;16.13;;;8.43;;
39728;SDS011;25402;42.004;23.088;2022-12-18T12:34:52;14.30;;;7.78;;
39728;SDS011;25402;42.004;23.088;2022-12-18T12:37:32;17.98;;;8.82;;
39728;SDS011;25402;42.004;23.088;2022-12-18T12:40:06;17.75;;;8.85;;
39728;SDS011;25402;42.004;23.088;2022-12-18T12:42:34;17.38;;;9.27;;
39728;SDS011;25402;42.004;23.088;2022-12-18T12:45:31;18.95;;;8.85;;
39728;SDS011;25402;42.004;23.088;2022-12-18T12:48:02;17.42;;;8.35;;
39728;SDS011;25402;42.004;23.088;2022-12-18T12:50:34;18.92;;;8.93;;
39728;SDS011;25402;42.004;23.088;2022-12-18T12:53:05;18.92;;;9.23;;
39728;SDS011;25402;42.004;23.088;2022-12-18T12:55:35;20.17;;;9.13;;
39728;SDS011;25402;42.004;23.088;2022-12-18T12:58:05;19.02;;;9.02;;
39728;SDS011;25402;42.004;23.088;2022-12-18T13:00:39;20.67;;;9.57;;
39728;SDS011;25402;42.004;23.088;2022-12-18T13:03:15;19.45;;;8.75;;
39728;SDS011;25402;42.004;23.088;2022-12-18T13:05:53;23.08;;;9.60;;
39728;SDS011;25402;42.004;23.088;2022-12-18T13:08:24;22.63;;;9.82;;
39728;SDS011;25402;42.004;23.088;2022-12-18T13:10:52;23.10;;;10.23;;
39728;SDS011;25402;42.004;23.088;2022-12-18T13:13:49;26.63;;;10.07;;
39728;SDS011;25402;42.004;23.088;2022-12-18T13:18:48;24.42;;;10.55;;
39728;SDS011;25402;42.004;23.088;2022-12-18T13:21:20;24.23;;;9.80;;
39728;SDS011;25402;42.004;23.088;2022-12-18T13:23:49;23.80;;;10.30;;
39728;SDS011;25402;42.004;23.088;2022-12-18T13:26:30;21.63;;;10.07;;
39728;SDS011;25402;42.004;23.088;2022-12-18T13:28:59;24.83;;;10.18;;
39728;SDS011;25402;42.004;23.088;2022-12-18T13:34:25;20.73;;;9.52;;
39728;SDS011;25402;42.004;23.088;2022-12-18T13:36:56;21.27;;;9.35;;
39728;SDS011;25402;42.004;23.088;2022-12-18T13:39:43;20.85;;;9.63;;
39728;SDS011;25402;42.004;23.088;2022-12-18T13:45:38;19.92;;;9.35;;
39728;SDS011;25402;42.004;23.088;2022-12-18T13:48:14;18.85;;;9.63;;
39728;SDS011;25402;42.004;23.088;2022-12-18T13:50:43;19.33;;;9.75;;
39728;SDS011;25402;42.004;23.088;2022-12-18T13:53:20;18.73;;;9.20;;
39728;SDS011;25402;42.004;23.088;2022-12-18T13:55:50;17.25;;;9.10;;
39728;SDS011;25402;42.004;23.088;2022-12-18T13:58:17;19.08;;;9.50;;
39728;SDS011;25402;42.004;23.088;2022-12-18T14:00:44;19.75;;;9.77;;
39728;SDS011;25402;42.004;23.088;2022-12-18T14:03:18;17.38;;;9.10;;
39728;SDS011;25402;42.004;23.088;2022-12-18T14:05:52;19.38;;;9.45;;
39728;SDS011;25402;42.004;23.088;2022-12-18T14:08:26;20.70;;;10.10;;
39728;SDS011;25402;42.004;23.088;2022-12-18T14:10:58;21.60;;;10.85;;
39728;SDS011;25402;42.004;23.088;2022-12-18T14:13:28;18.65;;;10.27;;
39728;SDS011;25402;42.004;23.088;2022-12-18T14:15:57;20.35;;;9.45;;
39728;SDS011;25402;42.004;23.088;2022-12-18T14:18:29;18.65;;;8.90;;
39728;SDS011;25402;42.004;23.088;2022-12-18T14:21:00;18.13;;;8.80;;
39728;SDS011;25402;42.004;23.088;2022-12-18T14:23:32;20.60;;;9.60;;
39728;SDS011;25402;42.004;23.088;2022-12-18T14:26:00;22.77;;;9.15;;
39728;SDS011;25402;42.004;23.088;2022-12-18T14:28:28;22.17;;;9.73;;
39728;SDS011;25402;42.004;23.088;2022-12-18T14:30:55;17.13;;;8.68;;
39728;SDS011;25402;42.004;23.088;2022-12-18T14:33:23;19.48;;;8.75;;
39728;SDS011;25402;42.004;23.088;2022-12-18T14:35:57;22.17;;;8.98;;
39728;SDS011;25402;42.004;23.088;2022-12-18T14:38:27;17.38;;;8.48;;
39728;SDS011;25402;42.004;23.088;2022-12-18T14:41:02;17.60;;;8.63;;
39728;SDS011;25402;42.004;23.088;2022-12-18T14:43:31;23.08;;;9.50;;
39728;SDS011;25402;42.004;23.088;2022-12-18T14:46:00;21.85;;;9.85;;
39728;SDS011;25402;42.004;23.088;2022-12-18T14:48:33;20.30;;;9.32;;
39728;SDS011;25402;42.004;23.088;2022-12-18T14:51:03;21.65;;;8.32;;
39728;SDS011;25402;42.004;23.088;2022-12-18T14:53:34;17.23;;;9.25;;
39728;SDS011;25402;42.004;23.088;2022-12-18T14:58:50;21.55;;;8.55;;